Time;durP1;ratioP1;P1;durP2;ratioP2;P2;SDS_P1;SDS_P2;PMS_P1;PMS_P2;Temp;Humidity;BMP_temperature;BMP_pressure;BME280_temperature;BME280_humidity;BME280_pressure;Samples;Min_cycle;Max_cycle;Signal;HPM_P1;HPM_P2
2023/08/31 00:00:04;;;;;;;11.05;8.63;;;;;;;-140.66;100.00;55571.53;5099230;28;20426;-69
2023/08/31 00:02:50;;;;;;;10.20;7.93;;;;;;;-140.66;100.00;55571.53;5114438;28;20027;-68
2023/08/31 00:05:42;;;;;;;10.15;8.02;;;;;;;-140.66;100.00;55571.53;5113330;28;20098;-68
2023/08/31 00:08:28;;;;;;;11.32;8.10;;;;;;;-140.66;100.00;55571.53;5114774;28;20098;-69
2023/08/31 00:11:14;;;;;;;11.00;8.35;;;;;;;-140.66;100.00;55571.53;5106314;28;20031;-69
2023/08/31 00:14:00;;;;;;;11.45;8.48;;;;;;;-140.66;100.00;55571.53;5113714;28;20035;-69
2023/08/31 00:16:46;;;;;;;12.90;8.50;;;;;;;-140.66;100.00;55571.53;5114698;28;20399;-69
2023/08/31 00:19:32;;;;;;;14.40;8.82;;;;;;;-140.66;100.00;55571.53;5113605;28;20027;-68
2023/08/31 00:22:17;;;;;;;13.43;8.10;;;;;;;-140.66;100.00;55571.53;5113308;28;20043;-69
2023/08/31 00:25:05;;;;;;;11.32;8.30;;;;;;;-140.66;100.00;55571.53;5113291;28;20023;-68
2023/08/31 00:27:52;;;;;;;14.63;9.38;;;;;;;-140.66;100.00;55571.53;5114092;28;20024;-68
2023/08/31 00:30:38;;;;;;;13.52;9.20;;;;;;;-140.66;100.00;55571.53;5114075;28;20031;-69
2023/08/31 00:33:26;;;;;;;12.45;9.48;;;;;;;-140.66;100.00;55571.53;5113989;28;20024;-68
2023/08/31 00:36:11;;;;;;;12.65;10.30;;;;;;;-140.66;100.00;55571.53;5105345;28;20134;-69
2023/08/31 00:38:57;;;;;;;12.00;9.55;;;;;;;-140.66;100.00;55571.53;5114042;28;20027;-70
2023/08/31 00:41:45;;;;;;;15.98;9.25;;;;;;;-140.66;100.00;55571.53;5100667;28;20023;-69
2023/08/31 00:44:31;;;;;;;12.80;10.13;;;;;;;-140.66;100.00;55571.53;5113264;28;20040;-70
2023/08/31 00:47:19;;;;;;;14.82;9.60;;;;;;;-140.66;100.00;55571.53;5113840;28;20070;-69
2023/08/31 00:50:07;;;;;;;12.40;10.15;;;;;;;-140.66;100.00;55571.53;5099939;28;20084;-70
2023/08/31 00:52:53;;;;;;;13.50;9.88;;;;;;;-140.66;100.00;55571.53;5098522;28;20028;-69
2023/08/31 00:55:39;;;;;;;14.90;9.80;;;;;;;-140.66;100.00;55571.53;5113532;28;20031;-68
2023/08/31 00:58:25;;;;;;;13.38;9.82;;;;;;;-140.66;100.00;55571.53;5098321;28;20088;-69
2023/08/31 01:01:40;;;;;;;14.90;11.25;;;;;;;-140.66;100.00;55571.53;5113900;28;20369;-69
2023/08/31 01:04:55;;;;;;;14.40;11.05;;;;;;;-140.66;100.00;55571.53;5106407;28;20390;-69
2023/08/31 01:08:02;;;;;;;13.18;10.85;;;;;;;-140.66;100.00;55571.53;5113800;28;20068;-68
2023/08/31 01:11:17;;;;;;;15.68;10.85;;;;;;;-140.66;100.00;55571.53;5072436;28;20100;-69
2023/08/31 01:14:11;;;;;;;15.57;10.57;;;;;;;-140.66;100.00;55571.53;5078050;28;20131;-69
2023/08/31 01:16:59;;;;;;;16.88;11.90;;;;;;;-140.66;100.00;55571.53;5098409;28;20023;-69
2023/08/31 01:19:50;;;;;;;17.83;11.15;;;;;;;-140.66;100.00;55571.53;5114196;28;20027;-70
2023/08/31 01:22:55;;;;;;;15.68;11.38;;;;;;;-140.66;100.00;55571.53;5113466;28;20342;-69
2023/08/31 01:25:42;;;;;;;14.95;11.82;;;;;;;-140.66;100.00;55571.53;5113483;28;20122;-69
2023/08/31 01:28:28;;;;;;;13.65;10.77;;;;;;;-140.66;100.00;55571.53;5113582;28;20031;-69
2023/08/31 01:31:17;;;;;;;16.63;10.25;;;;;;;-140.66;100.00;55571.53;5113764;28;20035;-68
2023/08/31 01:34:35;;;;;;;18.67;9.88;;;;;;;-140.66;100.00;55571.53;5112764;28;20500;-68
2023/08/31 01:37:35;;;;;;;13.55;10.40;;;;;;;-140.66;100.00;55571.53;5100186;28;20110;-68
2023/08/31 01:40:42;;;;;;;11.52;10.15;;;;;;;-140.66;100.00;55571.53;5116776;28;20028;-69
2023/08/31 01:44:28;;;;;;;16.50;10.02;;;;;;;-140.66;100.00;55571.53;5116594;28;20082;-69
2023/08/31 01:48:13;;;;;;;17.17;10.57;;;;;;;-140.66;100.00;55571.53;5117434;28;20457;-68
2023/08/31 01:51:58;;;;;;;16.15;11.13;;;;;;;-140.66;100.00;55571.53;5116286;28;20019;-69
2023/08/31 01:55:38;;;;;;;13.68;10.43;;;;;;;-140.66;100.00;55571.53;5116149;28;20034;-68
2023/08/31 01:59:22;;;;;;;14.95;10.98;;;;;;;-140.66;100.00;55571.53;5117091;28;20020;-69
2023/08/31 02:03:07;;;;;;;14.07;10.80;;;;;;;-140.66;100.00;55571.53;5116853;28;20027;-69
2023/08/31 02:06:52;;;;;;;19.35;11.13;;;;;;;-140.66;100.00;55571.53;5102843;28;20023;-69
2023/08/31 02:10:36;;;;;;;14.15;10.85;;;;;;;-140.66;100.00;55571.53;5116751;28;20110;-69
2023/08/31 02:14:20;;;;;;;17.00;10.75;;;;;;;-140.66;100.00;55571.53;5116261;28;20028;-68
2023/08/31 02:18:05;;;;;;;14.50;11.48;;;;;;;-140.66;100.00;55571.53;5117046;28;20038;-68
2023/08/31 02:21:50;;;;;;;19.25;13.02;;;;;;;-140.66;100.00;55571.53;5115898;28;20110;-69
2023/08/31 02:25:34;;;;;;;16.42;11.73;;;;;;;-140.66;100.00;55571.53;5116016;28;20464;-69
2023/08/31 02:29:18;;;;;;;15.70;11.93;;;;;;;-140.66;100.00;55571.53;5116544;28;20043;-69
2023/08/31 02:33:03;;;;;;;15.05;11.60;;;;;;;-140.66;100.00;55571.53;5101243;28;20046;-69
2023/08/31 02:36:47;;;;;;;13.95;11.30;;;;;;;-140.66;100.00;55571.53;5115890;28;20074;-68
2023/08/31 02:40:31;;;;;;;15.07;11.30;;;;;;;-140.66;100.00;55571.53;5115843;28;20035;-68
2023/08/31 02:44:16;;;;;;;14.48;10.80;;;;;;;-140.66;100.00;55571.53;5102118;28;20027;-68
2023/08/31 02:48:00;;;;;;;14.60;11.57;;;;;;;-140.66;100.00;55571.53;5117058;28;20075;-68
2023/08/31 02:51:45;;;;;;;15.60;11.60;;;;;;;-140.66;100.00;55571.53;5117007;28;20031;-68
2023/08/31 02:55:31;;;;;;;14.52;11.65;;;;;;;-140.66;100.00;55571.53;5099645;28;20024;-68
2023/08/31 02:59:17;;;;;;;14.02;10.73;;;;;;;-140.66;100.00;55571.53;5115906;28;20020;-68
2023/08/31 03:03:02;;;;;;;14.65;11.07;;;;;;;-140.66;100.00;55571.53;5116040;28;20023;-68
2023/08/31 03:06:46;;;;;;;17.00;11.48;;;;;;;-140.66;100.00;55571.53;5099458;28;20023;-68
2023/08/31 03:10:30;;;;;;;15.45;12.15;;;;;;;-140.66;100.00;55571.53;5116313;28;20377;-68
2023/08/31 03:14:14;;;;;;;18.02;12.93;;;;;;;-140.66;100.00;55571.53;5115285;28;20027;-69
2023/08/31 03:17:58;;;;;;;15.40;12.23;;;;;;;-140.66;100.00;55571.53;5115875;28;20043;-69
2023/08/31 03:21:43;;;;;;;17.77;13.05;;;;;;;-140.66;100.00;55571.53;5114746;28;20023;-69
2023/08/31 03:25:27;;;;;;;18.05;12.38;;;;;;;-140.66;100.00;55571.53;5113845;28;20119;-69
2023/08/31 03:29:11;;;;;;;19.83;13.25;;;;;;;-140.66;100.00;55571.53;5107923;28;20115;-70
2023/08/31 03:32:56;;;;;;;16.85;13.30;;;;;;;-140.66;100.00;55571.53;5115234;28;20341;-69
2023/08/31 03:36:40;;;;;;;15.55;12.15;;;;;;;-140.66;100.00;55571.53;5114846;28;20035;-69
2023/08/31 03:40:24;;;;;;;17.08;14.18;;;;;;;-140.66;100.00;55571.53;5115005;28;20028;-68
2023/08/31 03:44:09;;;;;;;18.88;13.32;;;;;;;-140.66;100.00;55571.53;5114411;28;20030;-68
2023/08/31 03:47:53;;;;;;;18.38;13.07;;;;;;;-140.66;100.00;55571.53;5114497;28;20047;-69
2023/08/31 03:51:37;;;;;;;17.58;13.80;;;;;;;-140.66;100.00;55571.53;5114921;28;20028;-69
2023/08/31 03:55:21;;;;;;;17.30;13.18;;;;;;;-140.66;100.00;55571.53;5114656;28;20084;-68
2023/08/31 03:59:05;;;;;;;17.35;13.00;;;;;;;-140.66;100.00;55571.53;5113862;28;20492;-69
2023/08/31 04:02:50;;;;;;;20.23;13.88;;;;;;;-140.66;100.00;55571.53;5113936;28;20046;-68
2023/08/31 04:06:34;;;;;;;16.55;13.32;;;;;;;-140.66;100.00;55571.53;5099062;28;20144;-69
2023/08/31 04:10:08;;;;;;;19.25;13.52;;;;;;;-140.66;100.00;55571.53;5114025;28;20453;-68
2023/08/31 04:13:22;;;;;;;18.35;13.00;;;;;;;-140.66;100.00;55571.53;5114032;28;20055;-68
2023/08/31 04:16:14;;;;;;;21.10;13.93;;;;;;;-140.66;100.00;55571.53;5114185;28;20051;-68
2023/08/31 04:19:27;;;;;;;17.95;12.52;;;;;;;-140.66;100.00;55571.53;5114079;28;20353;-68
2023/08/31 04:23:11;;;;;;;20.52;14.27;;;;;;;-140.66;100.00;55571.53;5105797;28;20027;-69
2023/08/31 04:26:56;;;;;;;16.88;13.27;;;;;;;-140.66;100.00;55571.53;5097791;28;20023;-69
2023/08/31 04:30:40;;;;;;;19.13;14.23;;;;;;;-140.66;100.00;55571.53;5099250;28;20055;-69
2023/08/31 04:34:24;;;;;;;21.05;14.23;;;;;;;-140.66;100.00;55571.53;5114456;28;20034;-69
2023/08/31 04:38:08;;;;;;;18.77;14.40;;;;;;;-140.66;100.00;55571.53;5113639;28;20333;-68
2023/08/31 04:41:53;;;;;;;19.13;14.38;;;;;;;-140.66;100.00;55571.53;5113529;28;20024;-69
2023/08/31 04:45:37;;;;;;;17.00;13.27;;;;;;;-140.66;100.00;55571.53;5113947;28;20055;-69
2023/08/31 04:49:21;;;;;;;18.35;14.07;;;;;;;-140.66;100.00;55571.53;5114478;28;20446;-68
2023/08/31 04:53:05;;;;;;;17.05;14.70;;;;;;;-140.66;100.00;55571.53;5114463;28;20356;-69
2023/08/31 04:56:50;;;;;;;17.33;13.77;;;;;;;-140.66;100.00;55571.53;5113245;28;20053;-69
2023/08/31 05:00:34;;;;;;;23.48;15.27;;;;;;;-140.66;100.00;55571.53;5099537;28;20085;-69
2023/08/31 05:04:18;;;;;;;17.95;14.45;;;;;;;-140.66;100.00;55571.53;5098427;28;20031;-70
2023/08/31 05:08:03;;;;;;;16.42;13.50;;;;;;;-140.66;100.00;55571.53;5112857;28;20059;-69
2023/08/31 05:11:47;;;;;;;21.95;15.02;;;;;;;-140.66;100.00;55571.53;5113601;28;20096;-70
2023/08/31 05:15:33;;;;;;;18.02;13.15;;;;;;;-140.66;100.00;55571.53;5116648;28;20034;-69
2023/08/31 05:19:17;;;;;;;23.45;14.52;;;;;;;-140.66;100.00;55571.53;5117161;28;20122;-69
2023/08/31 05:23:02;;;;;;;22.15;12.82;;;;;;;-140.66;100.00;55571.53;5117849;28;20131;-70
2023/08/31 05:26:46;;;;;;;17.02;13.13;;;;;;;-140.66;100.00;55571.53;5117422;28;20016;-69
2023/08/31 05:30:31;;;;;;;18.20;13.70;;;;;;;-140.66;100.00;55571.53;5118853;28;20089;-69
2023/08/31 05:34:16;;;;;;;16.00;13.15;;;;;;;-140.66;100.00;55571.53;5117218;28;20023;-69
2023/08/31 05:38:00;;;;;;;23.13;14.85;;;;;;;-140.66;100.00;55571.53;5116783;28;20444;-69
2023/08/31 05:41:44;;;;;;;24.13;16.13;;;;;;;-140.66;100.00;55571.53;5117444;28;20042;-69
2023/08/31 05:45:34;;;;;;;22.80;14.95;;;;;;;-140.66;100.00;55571.53;5102209;28;20075;-68
2023/08/31 05:49:19;;;;;;;22.90;16.67;;;;;;;-140.66;100.00;55571.53;5117312;28;20043;-68
2023/08/31 05:53:04;;;;;;;26.95;18.35;;;;;;;-140.66;100.00;55571.53;5117461;28;20372;-69
2023/08/31 05:56:48;;;;;;;28.75;18.70;;;;;;;-140.66;100.00;55571.53;5116852;28;21970;-68
2023/08/31 06:00:32;;;;;;;26.95;19.83;;;;;;;-140.66;100.00;55571.53;5116574;28;20023;-70
2023/08/31 06:04:16;;;;;;;32.70;19.35;;;;;;;-140.66;100.00;55571.53;5101784;28;20020;-69
2023/08/31 06:08:01;;;;;;;24.88;18.77;;;;;;;-140.66;100.00;55571.53;5117280;28;20161;-69
2023/08/31 06:11:45;;;;;;;28.83;19.55;;;;;;;-140.66;100.00;55571.53;5117282;28;20076;-69
2023/08/31 06:15:29;;;;;;;26.70;18.98;;;;;;;-140.66;100.00;55571.53;5115781;28;20070;-70
2023/08/31 06:19:16;;;;;;;31.77;18.33;;;;;;;-140.66;100.00;55571.53;5116685;28;20027;-69
2023/08/31 06:23:00;;;;;;;27.05;17.67;;;;;;;-140.66;100.00;55571.53;5116060;28;20019;-69
2023/08/31 06:26:45;;;;;;;25.33;17.65;;;;;;;-140.66;100.00;55571.53;5100519;28;20045;-69
2023/08/31 06:30:29;;;;;;;22.48;15.95;;;;;;;-140.66;100.00;55571.53;5116258;28;20440;-69
2023/08/31 06:34:13;;;;;;;24.30;16.60;;;;;;;-140.66;100.00;55571.53;5116058;28;20031;-69
2023/08/31 06:37:58;;;;;;;20.00;15.68;;;;;;;-140.66;100.00;55571.53;5115590;28;20114;-69
2023/08/31 06:41:42;;;;;;;16.17;12.95;;;;;;;-140.66;100.00;55571.53;5115250;28;20081;-69
2023/08/31 06:45:26;;;;;;;22.88;15.43;;;;;;;-140.66;100.00;55571.53;5114935;28;20481;-68
2023/08/31 06:49:07;;;;;;;19.40;14.07;;;;;;;-140.66;100.00;55571.53;5115712;28;20019;-69
2023/08/31 06:52:51;;;;;;;19.15;15.20;;;;;;;-140.66;100.00;55571.53;5115529;28;20110;-69
2023/08/31 06:56:35;;;;;;;22.60;14.55;;;;;;;-140.66;100.00;55571.53;5115747;28;20027;-70
2023/08/31 07:00:20;;;;;;;19.65;14.13;;;;;;;-140.66;100.00;55571.53;5116135;28;20043;-70
2023/08/31 07:04:04;;;;;;;18.90;14.02;;;;;;;-140.66;100.00;55571.53;5115523;28;20403;-68
2023/08/31 07:07:46;;;;;;;20.15;14.27;;;;;;;-140.66;100.00;55571.53;5116131;28;20016;-69
2023/08/31 07:11:31;;;;;;;19.48;14.02;;;;;;;-140.66;100.00;55571.53;5115212;28;20027;-69
2023/08/31 07:15:15;;;;;;;18.40;13.60;;;;;;;-140.66;100.00;55571.53;5114664;28;20027;-69
2023/08/31 07:19:00;;;;;;;18.25;13.00;;;;;;;-140.66;100.00;55571.53;5114575;28;20039;-68
2023/08/31 07:21:59;;;;;;;20.00;12.13;;;;;;;-140.66;100.00;55571.53;5115188;28;20055;-69
2023/08/31 07:25:14;;;;;;;15.07;11.10;;;;;;;-140.66;100.00;55571.53;5114298;28;20032;-68
2023/08/31 07:28:39;;;;;;;17.95;12.30;;;;;;;-140.66;100.00;55571.53;5114631;28;20038;-68
2023/08/31 07:32:23;;;;;;;15.93;12.05;;;;;;;-140.66;100.00;55571.53;5115221;28;20042;-68
2023/08/31 07:36:07;;;;;;;16.13;12.93;;;;;;;-140.66;100.00;55571.53;5098506;28;20042;-70
2023/08/31 07:39:52;;;;;;;18.85;12.32;;;;;;;-140.66;100.00;55571.53;5115038;28;20373;-68
2023/08/31 07:43:36;;;;;;;17.77;12.43;;;;;;;-140.66;100.00;55571.53;5115730;28;20108;-70
2023/08/31 07:47:21;;;;;;;17.13;11.90;;;;;;;-140.66;100.00;55571.53;5114930;28;20435;-69
2023/08/31 07:51:05;;;;;;;17.08;11.50;;;;;;;-140.66;100.00;55571.53;5099270;28;20076;-69
2023/08/31 07:54:50;;;;;;;15.20;11.77;;;;;;;-140.66;100.00;55571.53;5098963;28;20031;-69
2023/08/31 07:58:34;;;;;;;18.45;11.80;;;;;;;-140.66;100.00;55571.53;5114050;28;20050;-70
2023/08/31 08:01:47;;;;;;;17.00;12.43;;;;;;;-140.66;100.00;55571.53;5098931;28;20030;-70
2023/08/31 08:05:31;;;;;;;16.58;12.73;;;;;;;-140.66;100.00;55571.53;5113963;28;20032;-70
2023/08/31 08:08:59;;;;;;;16.08;11.40;;;;;;;-140.66;100.00;55571.53;5099295;28;20030;-70
2023/08/31 08:12:09;;;;;;;21.00;13.07;;;;;;;-140.66;100.00;55571.53;5114643;28;20027;-69
2023/08/31 08:14:58;;;;;;;18.30;12.82;;;;;;;-140.66;100.00;55571.53;5114123;28;20093;-68
2023/08/31 08:17:48;;;;;;;20.88;13.30;;;;;;;-140.66;100.00;55571.53;5114546;28;20045;-70
2023/08/31 08:20:39;;;;;;;20.90;13.18;;;;;;;-140.66;100.00;55571.53;5114635;28;20024;-69
2023/08/31 08:23:25;;;;;;;17.63;12.60;;;;;;;-140.66;100.00;55571.53;5114887;28;20026;-70
2023/08/31 08:26:13;;;;;;;17.05;12.18;;;;;;;-140.66;100.00;55571.53;5113427;28;20059;-70
2023/08/31 08:29:01;;;;;;;17.73;13.10;;;;;;;-140.66;100.00;55571.53;5113146;28;20028;-70
2023/08/31 08:31:52;;;;;;;17.35;12.45;;;;;;;-140.66;100.00;55571.53;5114349;28;20042;-70
2023/08/31 08:34:43;;;;;;;19.95;14.52;;;;;;;-140.66;100.00;55571.53;5113696;28;20118;-69
2023/08/31 08:38:01;;;;;;;20.60;11.93;;;;;;;-140.66;100.00;55571.53;5115168;28;20061;-68
2023/08/31 08:40:49;;;;;;;17.08;13.50;;;;;;;-140.66;100.00;55571.53;5114482;28;20463;-70
2023/08/31 08:44:35;;;;;;;16.52;13.25;;;;;;;-140.66;100.00;55571.53;5112636;28;20502;-69
2023/08/31 08:48:07;;;;;;;17.10;14.23;;;;;;;-140.66;100.00;55571.53;5113607;28;20023;-69
2023/08/31 08:50:54;;;;;;;19.23;13.45;;;;;;;-140.66;100.00;55571.53;5114862;28;20027;-69
2023/08/31 08:54:12;;;;;;;18.70;14.75;;;;;;;-140.66;100.00;55571.53;5113273;28;20028;-69
2023/08/31 08:56:58;;;;;;;20.27;13.93;;;;;;;-140.66;100.00;55571.53;5113405;28;20028;-70
2023/08/31 08:59:44;;;;;;;19.70;14.32;;;;;;;-140.66;100.00;55571.53;5114197;28;20425;-70
2023/08/31 09:02:29;;;;;;;16.67;13.32;;;;;;;-140.66;100.00;55571.53;5113084;28;20020;-70
2023/08/31 09:05:16;;;;;;;16.40;12.00;;;;;;;-140.66;100.00;100622.84;5097935;28;20115;-70
2023/08/31 09:08:07;;;;;;;19.38;13.20;;;;;;;-140.66;100.00;55571.53;5114143;28;20044;-70
2023/08/31 09:10:57;;;;;;;18.05;12.65;;;;;;;-140.66;100.00;55571.53;5113102;28;20024;-69
2023/08/31 09:13:43;;;;;;;19.83;14.32;;;;;;;29.13;100.00;100613.94;5114046;28;20054;-70
2023/08/31 09:16:30;;;;;;;19.58;13.52;;;;;;;29.17;100.00;100616.16;5113555;28;20024;-71
2023/08/31 09:19:27;;;;;;;21.40;14.20;;;;;;;29.17;100.00;100616.16;5113532;28;20041;-70
2023/08/31 09:22:13;;;;;;;21.13;14.05;;;;;;;29.42;100.00;100606.56;5112738;28;20084;-70
2023/08/31 09:24:59;;;;;;;23.60;15.02;;;;;;;29.55;100.00;100607.91;5113649;28;20358;-70
2023/08/31 09:27:45;;;;;;;22.08;14.50;;;;;;;28.67;100.00;100606.63;5113722;28;20350;-70
2023/08/31 09:30:40;;;;;;;23.17;15.30;;;;;;;29.36;100.00;100613.41;5112840;28;20020;-70
2023/08/31 09:33:25;;;;;;;19.27;13.95;;;;;;;29.77;100.00;100621.03;5113833;28;20459;-69
2023/08/31 09:36:11;;;;;;;23.60;14.82;;;;;;;29.23;100.00;100612.91;5105907;28;20088;-70
2023/08/31 09:38:58;;;;;;;27.42;14.95;;;;;;;23.38;100.00;82464.53;5113719;28;20023;-70
2023/08/31 09:41:54;;;;;;;18.85;14.68;;;;;;;-140.66;100.00;55571.53;5113858;28;20039;-70
2023/08/31 09:44:43;;;;;;;18.63;14.40;;;;;;;28.33;0.00;55571.53;5113655;28;20051;-69
2023/08/31 09:47:28;;;;;;;21.33;14.30;;;;;;;-140.66;100.00;55571.53;5114064;28;20055;-69
2023/08/31 09:50:14;;;;;;;17.98;14.23;;;;;;;-140.66;100.00;55571.53;5112854;28;20027;-69
2023/08/31 09:53:05;;;;;;;30.50;15.40;;;;;;;-140.66;100.00;55571.53;5112671;28;20100;-70
2023/08/31 09:55:51;;;;;;;26.55;14.57;;;;;;;-140.66;100.00;55571.53;5113080;28;20063;-69
2023/08/31 09:58:37;;;;;;;21.98;14.05;;;;;;;-140.66;100.00;55571.53;5114159;28;20135;-69
2023/08/31 10:01:23;;;;;;;23.77;14.57;;;;;;;-140.66;100.00;55571.53;5116878;28;20035;-69
2023/08/31 10:04:10;;;;;;;18.15;12.25;;;;;;;-140.66;100.00;55571.53;5116325;28;20172;-70
2023/08/31 10:06:56;;;;;;;23.67;13.15;;;;;;;-140.66;100.00;55571.53;5116366;28;20092;-70
2023/08/31 10:09:43;;;;;;;22.23;14.10;;;;;;;-140.66;100.00;55571.53;5116779;28;20051;-70
2023/08/31 10:12:30;;;;;;;18.48;13.10;;;;;;;-140.66;100.00;55571.53;5116876;28;20035;-70
2023/08/31 10:15:17;;;;;;;16.63;12.60;;;;;;;-140.66;100.00;55571.53;5116482;28;20039;-70
2023/08/31 10:18:05;;;;;;;19.98;12.75;;;;;;;-140.66;100.00;55571.53;5116927;28;20031;-70
2023/08/31 10:20:51;;;;;;;18.35;12.25;;;;;;;-140.66;100.00;55571.53;5117075;28;20020;-71
2023/08/31 10:23:47;;;;;;;18.17;13.10;;;;;;;-140.66;100.00;55571.53;5116223;28;20081;-70
2023/08/31 10:26:33;;;;;;;17.58;11.43;;;;;;;-140.66;100.00;55571.53;5116380;28;20156;-70
2023/08/31 10:29:30;;;;;;;17.17;11.27;;;;;;;-140.66;100.00;55571.53;5116104;28;20110;-71
2023/08/31 10:32:21;;;;;;;14.70;10.90;;;;;;;-140.66;100.00;55571.53;5101071;28;20088;-70
2023/08/31 10:35:10;;;;;;;17.02;10.20;;;;;;;-140.66;100.00;55571.53;5116179;28;20031;-70
2023/08/31 10:38:15;;;;;;;17.00;10.18;;;;;;;-140.66;100.00;55571.53;5102706;28;20035;-70
2023/08/31 10:41:07;;;;;;;12.13;8.77;;;;;;;-140.66;100.00;55571.53;5116365;28;20456;-70
2023/08/31 10:43:53;;;;;;;12.35;9.23;;;;;;;-140.66;100.00;55571.53;5115225;28;20043;-70
2023/08/31 10:46:43;;;;;;;14.63;9.60;;;;;;;-140.66;100.00;55571.53;5116729;28;20039;-70
2023/08/31 10:49:31;;;;;;;13.48;9.38;;;;;;;-140.66;100.00;55571.53;5116981;28;20342;-70
2023/08/31 10:52:18;;;;;;;13.68;8.98;;;;;;;-140.66;100.00;55571.53;5115551;28;20055;-70
2023/08/31 10:55:05;;;;;;;12.40;8.68;;;;;;;-140.66;100.00;55571.53;5116661;28;20509;-70
2023/08/31 10:57:50;;;;;;;10.95;9.20;;;;;;;-140.66;100.00;55571.53;5115813;28;20023;-71
2023/08/31 11:01:01;;;;;;;15.13;8.98;;;;;;;-140.66;100.00;55571.53;5114725;28;20032;-69
2023/08/31 11:03:59;;;;;;;11.50;7.78;;;;;;;-140.66;100.00;55571.53;5116123;28;20099;-69
2023/08/31 11:06:45;;;;;;;13.35;7.53;;;;;;;-140.66;100.00;55571.53;5100666;28;20028;-71
2023/08/31 11:09:31;;;;;;;9.65;6.68;;;;;;;-140.66;100.00;55571.53;5102055;28;20028;-71
2023/08/31 11:12:16;;;;;;;12.95;7.78;;;;;;;-140.66;100.00;55571.53;5101495;28;20023;-70
2023/08/31 11:15:03;;;;;;;15.23;7.60;;;;;;;-140.66;100.00;55571.53;5114870;28;20031;-70
2023/08/31 11:17:51;;;;;;;11.13;7.30;;;;;;;-140.66;100.00;55571.53;5100519;28;20376;-69
2023/08/31 11:20:37;;;;;;;8.95;6.85;;;;;;;-140.66;100.00;55571.53;5116250;28;20031;-70
2023/08/31 11:23:23;;;;;;;18.48;7.07;;;;;;;-140.66;100.00;55571.53;5100975;28;20042;-71
2023/08/31 11:26:09;;;;;;;10.80;6.72;;;;;;;-140.66;100.00;55571.53;5114867;28;20042;-70
2023/08/31 11:28:56;;;;;;;10.65;6.63;;;;;;;-140.66;100.00;55571.53;5116525;28;20102;-71
2023/08/31 11:31:41;;;;;;;9.80;6.00;;;;;;;-140.66;100.00;55571.53;5114450;28;20504;-70
2023/08/31 11:34:27;;;;;;;8.13;5.40;;;;;;;-140.66;100.00;55571.53;5101484;28;20118;-70
2023/08/31 11:37:19;;;;;;;6.38;4.55;;;;;;;-140.66;100.00;55571.53;5107453;28;20023;-69
2023/08/31 11:40:06;;;;;;;8.13;5.68;;;;;;;-140.66;100.00;55571.53;5115909;28;20020;-69
2023/08/31 11:42:52;;;;;;;9.20;5.20;;;;;;;-140.66;100.00;55571.53;5116066;28;20110;-70
2023/08/31 11:45:39;;;;;;;13.88;5.28;;;;;;;-140.66;100.00;55571.53;5113985;28;20055;-70
2023/08/31 11:48:25;;;;;;;4.95;4.00;;;;;;;-140.66;100.00;55571.53;5114308;28;20283;-70
2023/08/31 11:51:12;;;;;;;7.38;4.40;;;;;;;-140.66;100.00;55571.53;5105895;28;20039;-69
2023/08/31 11:53:59;;;;;;;7.25;3.88;;;;;;;-140.66;100.00;55571.53;5115496;28;20088;-69
2023/08/31 11:56:48;;;;;;;12.20;4.68;;;;;;;-140.66;100.00;55571.53;5113666;28;20023;-70
2023/08/31 11:59:38;;;;;;;8.73;4.35;;;;;;;-140.66;100.00;55571.53;5115921;28;20059;-70
2023/08/31 12:02:24;;;;;;;8.50;4.13;;;;;;;-140.66;100.00;55571.53;5114875;28;20349;-70
2023/08/31 12:05:09;;;;;;;8.18;4.10;;;;;;;-140.66;100.00;55571.53;5115846;28;20019;-71
2023/08/31 12:07:56;;;;;;;9.13;4.43;;;;;;;-140.66;100.00;55571.53;5115800;28;20038;-70
2023/08/31 12:10:42;;;;;;;6.30;4.15;;;;;;;-140.66;100.00;55571.53;5099598;28;20463;-70
2023/08/31 12:13:28;;;;;;;5.78;3.80;;;;;;;-140.66;100.00;55571.53;5113108;28;20040;-71
2023/08/31 12:16:15;;;;;;;6.70;4.03;;;;;;;-140.66;100.00;55571.53;5107310;28;20023;-72
2023/08/31 12:19:05;;;;;;;6.38;3.85;;;;;;;-140.66;100.00;55571.53;5115211;28;20027;-72
2023/08/31 12:21:50;;;;;;;20.70;5.00;;;;;;;-140.66;100.00;55571.53;5113908;28;20102;-72
2023/08/31 12:24:40;;;;;;;6.30;3.97;;;;;;;-140.66;100.00;55571.53;5117213;28;20024;-72
2023/08/31 12:27:26;;;;;;;8.45;3.92;;;;;;;-140.66;100.00;55571.53;5101468;28;20326;-72
2023/08/31 12:30:12;;;;;;;6.93;4.03;;;;;;;-140.66;100.00;55571.53;5116216;28;20032;-70
2023/08/31 12:32:58;;;;;;;12.43;3.75;;;;;;;-140.66;100.00;55571.53;5115136;28;20034;-72
2023/08/31 12:35:44;;;;;;;6.45;3.97;;;;;;;-140.66;100.00;55571.53;5113583;28;20054;-72
2023/08/31 12:38:31;;;;;;;6.53;4.10;;;;;;;-140.66;100.00;55571.53;5114729;28;20127;-72
2023/08/31 12:41:17;;;;;;;5.60;4.10;;;;;;;-140.66;100.00;55571.53;5114256;28;20430;-73
2023/08/31 12:44:04;;;;;;;6.68;3.75;;;;;;;-140.66;100.00;55571.53;5114727;28;20079;-72
2023/08/31 12:46:52;;;;;;;5.05;4.45;;;;;;;-140.66;100.00;55571.53;5114722;28;20027;-72
2023/08/31 12:49:38;;;;;;;5.80;4.13;;;;;;;-140.66;100.00;55571.53;5113454;28;20092;-72
2023/08/31 12:52:25;;;;;;;7.35;4.03;;;;;;;-140.66;100.00;55571.53;5115010;28;20034;-71
2023/08/31 12:55:15;;;;;;;6.28;3.72;;;;;;;-140.66;100.00;55571.53;5115573;28;20023;-72
2023/08/31 12:58:00;;;;;;;8.75;4.00;;;;;;;-140.66;100.00;55571.53;5113488;28;20050;-73
2023/08/31 13:00:48;;;;;;;7.78;3.70;;;;;;;-140.66;100.00;55571.53;5099357;28;20028;-73
2023/08/31 13:03:34;;;;;;;8.18;3.63;;;;;;;-140.66;100.00;55571.53;5114214;28;20088;-73
2023/08/31 13:06:19;;;;;;;7.03;3.75;;;;;;;-140.66;100.00;55571.53;5114550;28;20444;-73
2023/08/31 13:09:08;;;;;;;6.70;3.70;;;;;;;-140.66;100.00;55571.53;5113838;28;20348;-73
2023/08/31 13:11:54;;;;;;;10.82;3.40;;;;;;;-140.66;100.00;55571.53;5113889;28;20449;-73
2023/08/31 13:14:40;;;;;;;6.75;3.67;;;;;;;-140.66;100.00;55571.53;5098925;28;20027;-73
2023/08/31 13:17:26;;;;;;;9.52;3.10;;;;;;;-140.66;100.00;55571.53;5116665;28;20024;-73
2023/08/31 13:20:12;;;;;;;5.97;3.13;;;;;;;-140.66;100.00;55571.53;5117995;28;20024;-72
2023/08/31 13:22:58;;;;;;;9.80;3.35;;;;;;;-140.66;100.00;55571.53;5115248;28;20023;-73
2023/08/31 13:25:44;;;;;;;7.43;3.95;;;;;;;-140.66;100.00;55571.53;5115847;28;20023;-73
2023/08/31 13:28:30;;;;;;;6.65;3.33;;;;;;;-140.66;100.00;55571.53;5117228;28;20023;-72
2023/08/31 13:31:15;;;;;;;5.07;3.55;;;;;;;-140.66;100.00;55571.53;5116842;28;20027;-72
2023/08/31 13:34:03;;;;;;;8.98;3.60;;;;;;;-140.66;100.00;55571.53;5118705;28;20032;-72
2023/08/31 13:36:49;;;;;;;5.45;3.40;;;;;;;-140.66;100.00;55571.53;5119618;28;20461;-72
2023/08/31 13:39:36;;;;;;;7.88;3.30;;;;;;;-140.66;100.00;55571.53;5119111;28;20041;-71
2023/08/31 13:42:22;;;;;;;5.05;2.90;;;;;;;-140.66;100.00;55571.53;5119137;28;20353;-73
2023/08/31 13:45:09;;;;;;;5.68;3.40;;;;;;;-140.66;100.00;55571.53;5121446;28;20120;-72
2023/08/31 13:47:54;;;;;;;5.22;3.15;;;;;;;-140.66;100.00;55571.53;5120567;28;20031;-73
2023/08/31 13:50:40;;;;;;;5.93;3.50;;;;;;;-140.66;100.00;55571.53;5122550;28;20016;-73
2023/08/31 13:53:26;;;;;;;7.97;3.90;;;;;;;-140.66;100.00;55571.53;5118785;28;20027;-73
2023/08/31 13:56:11;;;;;;;6.65;3.40;;;;;;;-140.66;100.00;55571.53;5119458;28;20023;-73
2023/08/31 13:58:58;;;;;;;8.95;3.50;;;;;;;-140.66;100.00;55571.53;5105193;28;20027;-71
2023/08/31 14:01:47;;;;;;;7.68;3.40;;;;;;;-140.66;100.00;55571.53;5118292;28;20043;-72
2023/08/31 14:04:33;;;;;;;5.78;3.50;;;;;;;-140.66;100.00;55571.53;5119020;28;20031;-72
2023/08/31 14:07:18;;;;;;;8.52;3.40;;;;;;;-140.66;100.00;55571.53;5118941;28;20338;-72
2023/08/31 14:10:05;;;;;;;17.60;3.92;;;;;;;-140.66;100.00;55571.53;5119114;28;20428;-71